Sant Martí Sacalm





Hora UTC 21:25
Temperatura 1.7 ºC
Humitat 89.8 %
Pressió 999.9 hPa
Pluja 0.0 mm
Velocitat vent 11.3 km/h
Direcció vent WSW
Radiació solar 0.1 W/m²

Dades diàries 2021-11-27



Hora UTC (hivern +1h; estiu +2h)
Temperatura (ºC) Humitat (%) Pressió (hPa) Velocitat vent (km/h) Precipitació (mm) Radiació solar (W/m²)
Hora UTC Aire Humitat Pressió Vel. Dir. Vel. Max Dir. Intent. màx 5 min. Rad. Sol.
00:05 1.6 96.1 1000.9 21.4 SW 21.4 WSW 0.0 0.1
00:10 1.5 96.7 1000.9 23.0 SW 30.4 WSW 0.0 0.1
00:15 1.4 96.7 1000.8 24.3 WSW 32.8 SW 0.0 0.1
00:20 1.5 96.3 1000.7 24.7 WSW 32.1 WSW 0.0 0.1
00:25 1.5 96.3 1000.6 24.7 SW 34.6 SW 0.0 0.1
00:30 1.6 96.2 1000.4 23.9 SW 31.1 SW 0.0 0.1
00:35 1.5 96.8 1000.3 22.8 SW 31.4 SW 0.0 0.1
00:40 1.4 97.4 1000.2 24.2 SW 33.2 SW 0.0 0.1
00:45 1.5 97.1 1000.2 24.5 SW 33.2 SW 0.0 0.1
00:50 1.5 97.0 1000.2 23.2 SW 32.5 SW 0.0 0.1
00:55 1.5 97.4 1000.2 25.0 SW 34.2 WSW 0.0 0.1
01:00 1.4 97.3 1000.0 23.5 SW 33.2 SW 0.0 0.1
01:05 1.5 97.2 999.9 29.8 SW 37.4 SW 0.0 0.1
01:10 1.5 97.8 1000.0 26.0 SW 35.7 WSW 0.0 0.1
01:15 1.5 97.8 1000.0 22.4 SW 30.0 SW 0.0 0.1
01:20 1.5 98.3 999.7 24.3 SW 29.7 SW 0.0 0.1
01:25 1.5 98.3 999.7 25.1 SW 34.2 SW 0.0 0.1
01:30 1.4 98.2 999.6 23.8 SW 31.4 WSW 0.0 0.1
01:35 1.3 98.2 999.4 27.5 SW 36.4 SW 0.0 0.1
01:40 1.2 97.7 999.2 30.3 SW 40.2 SW 0.0 0.1
01:45 1.3 96.5 999.2 33.2 SW 44.5 SW 0.0 0.1
01:50 1.3 96.0 999.1 34.0 SW 43.8 SW 0.0 0.1
01:55 1.3 95.6 999.2 29.5 SW 38.8 SW 0.0 0.1
02:00 1.2 96.3 999.2 28.2 SW 35.3 SW 0.0 0.1
02:05 1.1 96.9 999.1 30.0 SW 40.9 SW 0.0 0.1
02:10 1.1 97.5 999.1 31.0 SW 44.8 SW 0.0 0.1
02:15 1.1 98.3 999.0 32.7 SW 40.6 SSW 0.0 0.1
02:20 1.1 98.3 998.9 32.6 SW 42.0 SSW 0.0 0.1
02:25 1.1 98.5 998.9 32.0 SW 41.6 SW 0.0 0.1
02:30 1.0 98.5 998.8 33.1 SW 46.6 SW 0.0 0.1
02:35 1.0 98.2 998.8 31.6 SW 42.7 SW 0.0 0.1
02:40 0.9 98.5 998.7 30.2 SW 38.5 SW 0.0 0.1
02:45 0.8 98.9 998.6 32.1 SW 42.0 SW 0.0 0.1
02:50 0.7 99.0 998.6 30.1 SW 42.4 SW 0.0 0.1
02:55 0.7 98.8 998.5 27.2 SW 35.3 SW 0.0 0.1
03:00 0.6 99.1 998.4 29.5 SW 36.4 SW 0.0 0.0
03:05 0.6 99.1 998.3 30.6 SW 39.2 SW 0.0 0.1
03:10 0.5 98.8 998.1 30.8 SW 40.2 SW 0.0 0.1
03:15 0.5 98.5 998.1 29.4 SW 39.2 SW 0.0 0.1
03:20 0.4 98.5 998.1 28.1 SW 38.1 WSW 0.0 0.1
03:25 0.4 98.4 998.0 27.2 SW 36.7 SW 0.0 0.1
03:30 0.3 98.5 997.9 29.3 SW 41.3 SW 0.0 0.1
03:35 0.2 98.9 997.9 29.5 SW 44.5 WSW 0.0 0.1
03:40 0.2 99.0 997.9 29.4 SW 39.5 WSW 0.0 0.1
03:45 0.1 99.1 997.7 30.1 SW 39.9 WSW 0.0 0.1
03:50 0.0 99.3 997.7 27.7 SW 38.1 SW 0.0 0.1
03:55 0.0 99.4 997.6 29.9 SW 38.5 SW 0.0 0.1
04:00 0.0 99.5 997.6 29.6 SW 38.8 SW 0.0 0.1
04:05 -0.1 99.6 997.6 28.9 SW 38.8 SW 0.0 0.1
04:10 -0.1 99.6 997.5 29.6 SW 39.9 SW 0.0 0.1
04:15 -0.1 99.6 997.5 28.6 SW 39.5 SW 0.0 0.1
04:20 -0.1 99.7 997.4 29.8 SW 40.2 WSW 0.0 0.1
04:25 -0.2 99.8 997.3 29.2 SW 38.5 SW 0.0 0.1
04:30 -0.2 99.9 997.3 29.4 SW 40.6 SW 0.0 0.1
04:35 -0.2 99.9 997.3 31.0 SW 43.4 SW 0.0 0.1
04:40 -0.2 99.9 997.2 30.6 SW 42.4 SW 0.0 0.1
04:45 -0.2 99.8 997.0 30.7 SW 40.9 SW 0.0 0.1
04:50 -0.3 99.8 996.9 30.7 SW 44.1 SW 0.0 0.1
04:55 -0.3 99.9 996.8 30.3 SW 39.2 SW 0.0 0.1
05:00 -0.4 99.9 996.9 29.7 SW 40.9 SW 0.0 0.1
05:05 -0.4 99.8 996.8 30.9 SW 43.1 SW 0.0 0.1
05:10 -0.5 99.7 996.7 33.8 SW 47.6 SW 0.0 0.1
05:15 -0.5 99.5 996.7 30.5 SW 42.4 SW 0.0 0.1
05:20 -0.6 99.4 996.7 31.1 SW 40.6 WSW 0.0 0.1
05:25 -0.6 99.4 996.6 31.8 SW 43.8 SW 0.0 0.1
05:30 -0.6 99.4 996.5 32.3 SW 45.2 WSW 0.0 0.1
05:35 -0.6 99.5 996.5 34.1 SW 47.6 SW 0.0 0.1
05:40 -0.6 99.3 996.4 32.9 SW 47.6 SW 0.0 0.1
05:45 -0.6 99.3 996.3 35.7 SW 49.1 SW 0.0 0.1
05:50 -0.6 99.1 996.1 35.3 SW 48.7 SW 0.0 0.1
05:55 -0.6 98.9 996.1 36.5 SW 48.7 SW 0.0 0.1
06:00 -0.5 98.6 996.2 35.0 SW 46.9 SW 0.0 0.1
06:05 -0.5 98.1 996.2 35.4 SW 49.4 SW 0.0 0.1
06:10 -0.4 97.9 996.2 34.2 SW 46.2 SW 0.0 0.1
06:15 -0.4 98.0 996.3 32.4 SW 46.2 SSW 0.0 0.1
06:20 -0.3 97.9 996.3 33.7 SW 46.2 SW 0.0 0.1
06:25 -0.3 97.7 996.2 33.7 SW 45.9 SW 0.0 0.1
06:30 -0.3 97.8 996.2 33.9 SW 48.7 WSW 0.0 0.1
06:35 -0.3 98.1 996.1 33.3 SW 49.1 SW 0.0 0.2
06:40 -0.2 98.0 996.0 36.4 SW 47.3 SW 0.0 0.3
06:45 -0.2 98.0 995.9 36.5 SW 48.7 SW 0.0 0.7
06:50 -0.2 97.8 995.9 36.1 SW 48.0 SW 0.0 1.3
06:55 -0.2 98.1 995.9 35.6 SW 48.7 WSW 0.0 2.2
07:00 -0.2 98.4 996.0 34.9 SW 48.4 SW 0.0 2.8
07:05 -0.2 98.6 996.1 33.7 SW 46.9 SW 0.0 4.3
07:10 -0.2 98.5 996.4 29.5 SW 40.2 SW 0.0 10.1
07:15 -0.2 98.0 996.4 28.0 SW 34.2 SW 0.0 17.4
07:20 -0.2 98.1 996.5 26.0 SW 34.2 SW 0.0 25.3
07:25 -0.2 97.9 996.4 27.4 SW 36.4 WSW 0.0 19.6
07:30 -0.1 97.4 996.2 32.1 SW 45.2 SW 0.0 21.1
07:35 0.1 96.1 996.3 32.5 SW 48.7 SW 0.0 28.7
07:40 0.1 96.3 996.6 27.4 WSW 42.4 WSW 0.0 39.8
07:45 0.2 95.9 996.8 25.5 WSW 36.4 SW 0.0 90.3
07:50 0.2 96.1 996.8 27.9 SW 39.2 WSW 0.0 97.9
07:55 0.2 95.9 996.9 25.1 SW 33.9 SW 0.0 137.8
08:00 0.2 95.5 996.9 25.2 SW 32.5 SW 0.0 158.4
08:05 0.3 95.8 997.0 22.7 SW 30.7 WSW 0.0 172.8
08:10 0.4 95.6 997.0 24.0 WSW 33.9 WSW 0.0 199.5
08:15 0.6 94.2 997.1 23.3 WSW 30.4 WSW 0.0 186.1
08:20 0.6 94.6 997.0 25.7 WSW 34.9 SW 0.0 227.6
08:25 0.6 94.5 996.9 24.9 SW 34.2 WSW 0.0 239.7
08:30 0.7 94.1 997.0 25.7 WSW 34.9 WSW 0.0 250.1
08:35 0.8 93.9 997.0 21.3 SW 32.5 SW 0.0 256.0
08:40 0.8 93.9 997.0 23.3 SW 34.9 SW 0.0 264.2
08:45 0.7 94.0 997.0 22.7 SW 29.3 SW 0.0 276.2
08:50 0.9 93.2 997.0 24.5 SW 32.5 WSW 0.0 282.8
08:55 1.1 92.8 996.9 23.9 SW 30.7 WSW 0.0 266.5
09:00 1.2 92.7 996.9 23.0 SW 31.1 SW 0.0 309.3
09:05 1.4 91.9 996.9 24.5 SW 34.2 SW 0.0 319.1
09:10 1.5 92.0 997.0 22.6 SW 32.1 SW 0.0 325.9
09:15 1.6 91.0 996.9 24.2 SW 33.2 SSW 0.0 335.4
09:20 1.8 90.7 996.9 22.9 SW 31.8 SW 0.0 343.3
09:25 1.8 90.6 996.9 24.5 SW 34.2 SW 0.0 354.8
09:30 1.8 90.8 996.9 24.1 SW 32.5 SW 0.0 363.9
09:35 1.9 90.7 996.9 26.1 SW 35.7 SW 0.0 398.1
09:40 2.2 90.2 997.0 23.6 SW 34.6 SW 0.0 434.9
09:45 2.2 90.0 997.0 23.9 SW 33.5 SW 0.0 409.8
09:50 2.2 90.0 997.0 26.4 SW 35.3 SW 0.0 339.4
09:55 2.1 90.4 997.1 28.7 SW 39.5 WSW 0.0 408.9
10:00 1.9 91.8 997.1 27.7 SW 36.7 SW 0.0 341.3
10:05 1.8 92.0 997.2 26.8 SW 35.7 SW 0.0 359.4
10:10 1.9 91.2 997.2 27.2 SW 33.5 SW 0.0 436.1
10:15 2.0 90.8 997.2 25.5 SW 36.4 SW 0.0 437.2
10:20 2.2 90.5 997.3 26.2 SW 37.1 WSW 0.0 432.6
10:25 2.2 90.3 997.3 27.3 SW 36.0 SSW 0.0 364.3
10:30 2.2 90.7 997.3 27.3 SW 40.9 SW 0.0 311.5
10:35 1.9 92.3 997.3 28.0 SW 38.5 SW 0.0 293.8
10:40 2.0 91.9 997.3 26.5 SW 35.7 SW 0.0 399.6
10:45 1.9 91.7 997.3 25.8 SW 34.9 SW 0.0 202.2
10:50 2.2 91.7 997.3 24.3 SW 34.6 SW 0.0 465.3
10:55 2.1 91.0 997.3 24.8 SW 34.2 SW 0.0 291.6
11:00 2.1 91.0 997.2 25.2 SW 31.1 SW 0.0 372.8
11:05 2.5 90.0 997.3 21.7 SW 28.2 SW 0.0 429.8
11:10 2.4 89.9 997.2 20.9 SW 27.2 SW 0.0 310.2
11:15 2.6 89.3 997.3 23.5 SW 28.9 SW 0.0 263.5
11:20 2.6 89.4 997.3 22.6 SW 30.4 WSW 0.0 262.0
11:25 2.8 88.9 997.2 23.6 SW 31.4 SW 0.0 347.1
11:30 2.8 88.9 997.1 22.4 SW 29.7 SW 0.0 309.9
11:35 2.9 88.5 997.1 24.6 SW 32.1 SW 0.0 332.2
11:40 3.1 87.7 997.1 25.5 SW 32.5 SW 0.0 358.8
11:45 3.1 87.3 997.2 24.8 SW 33.5 SW 0.0 339.5
11:50 3.1 87.0 997.1 24.1 SW 34.6 SW 0.0 370.4
11:55 3.5 85.9 997.2 21.0 SW 31.8 SW 0.0 373.0
12:00 3.7 84.0 997.1 20.3 SW 30.4 SW 0.0 306.8
12:05 4.0 83.9 997.2 18.9 SW 26.8 SW 0.0 344.0
12:10 4.1 84.2 997.2 14.7 SW 24.4 SW 0.0 263.1
12:15 3.9 83.9 997.2 18.5 SW 25.8 SW 0.0 271.3
12:20 3.9 85.0 997.2 17.4 SW 24.4 SW 0.0 266.4
12:25 3.7 85.2 997.3 16.5 SW 21.5 SW 0.0 201.2
12:30 3.6 85.5 997.3 12.6 SW 16.2 SSW 0.0 176.7
12:35 3.7 85.8 997.4 13.2 SW 17.7 WSW 0.0 179.3
12:40 3.9 85.7 997.4 8.8 WSW 13.4 SSW 0.0 169.7
12:45 4.0 83.7 997.4 5.7 WSW 9.5 SW 0.0 156.9
12:50 4.0 84.7 997.4 9.1 SW 11.7 SSW 0.0 134.6
12:55 3.9 85.1 997.4 8.4 SSW 12.4 SW 0.0 123.0
13:00 3.9 85.6 997.3 5.1 SSW 8.5 SSW 0.0 152.6
13:05 4.1 84.6 997.3 1.7 SW 5.0 WSW 0.0 212.2
13:10 4.6 84.4 997.2 0.9 NE 3.5 E 0.0 217.7
13:15 5.1 81.8 997.3 5.0 N 13.1 NNW 0.0 116.5
13:20 4.8 79.0 997.3 16.3 N 31.1 N 0.0 81.5
13:25 4.2 82.2 997.3 15.7 N 30.4 NNW 0.0 122.0
13:30 3.9 84.5 997.3 11.2 N 25.8 NNW 0.0 162.2
13:35 4.0 83.9 997.2 10.1 N 18.0 NNE 0.0 175.6
13:40 4.0 84.6 997.1 6.8 NNE 14.1 NNE 0.0 138.7
13:45 4.0 84.1 997.1 7.4 NNW 13.4 N 0.0 105.9
13:50 4.3 82.0 997.1 5.3 W 9.5 WNW 0.0 91.8
13:55 4.5 79.5 997.1 3.4 SW 6.7 W 0.0 102.6
14:00 4.8 79.9 996.8 8.4 E 12.4 E 0.0 110.0
14:05 5.0 79.4 996.8 3.9 SE 9.9 ESE 0.0 100.6
14:10 5.1 79.1 997.0 5.2 SW 9.2 SW 0.0 103.7
14:15 4.9 81.3 997.0 8.4 SSW 13.4 SW 0.0 110.3
14:20 4.7 83.2 997.1 8.3 SW 12.7 SW 0.0 120.2
14:25 4.7 82.1 997.1 8.3 SW 11.0 WSW 0.0 132.8
14:30 4.8 81.2 997.0 5.8 S 8.1 SSW 0.0 190.7
14:35 5.1 79.1 996.9 4.6 S 7.4 SSE 0.0 203.9
14:40 6.1 74.6 997.0 4.3 SW 8.5 SW 0.0 315.4
14:45 6.7 72.3 997.2 7.6 SW 11.3 SW 0.0 187.2
14:50 6.0 75.0 997.4 11.4 SW 15.2 SW 0.0 90.0
14:55 5.3 79.6 997.5 10.5 SW 14.1 SW 0.0 80.8
15:00 5.0 81.7 997.5 8.1 SSW 9.5 SW 0.0 52.2
15:05 4.6 83.5 997.6 9.6 SW 13.8 SW 0.0 42.6
15:10 4.4 84.1 997.6 11.3 SW 13.8 SW 0.0 45.0
15:15 4.3 84.6 997.6 10.0 SW 12.7 WSW 0.0 52.2
15:20 4.2 85.3 997.6 9.9 SW 12.7 WSW 0.0 56.9
15:25 4.2 84.9 997.5 8.2 SSW 11.0 SSW 0.0 54.7
15:30 4.2 83.6 997.6 9.9 SW 13.1 SSW 0.0 50.2
15:35 4.2 84.1 997.8 8.5 WSW 11.0 SW 0.0 43.3
15:40 4.3 79.5 997.8 8.8 SW 12.0 WSW 0.0 36.5
15:45 4.3 79.0 997.8 7.2 SW 11.3 SW 0.0 31.8
15:50 4.2 79.9 997.9 5.6 SW 7.8 SW 0.0 28.0
15:55 4.2 79.2 997.9 6.9 SSW 8.5 SW 0.0 24.2
16:00 4.3 78.8 997.9 6.5 SSW 8.8 SSW 0.0 20.8
16:05 4.2 79.3 997.9 7.5 SSW 9.2 SSW 0.0 16.6
16:10 4.0 81.0 997.9 5.5 SSW 8.1 S 0.0 13.1
16:15 3.5 84.9 998.0 6.1 S 12.0 SSE 0.0 9.4
16:20 3.2 89.2 998.0 8.2 SSW 14.8 S 0.0 6.6
16:25 3.3 88.6 998.0 10.2 SSW 14.1 SSW 0.0 4.7
16:30 3.4 86.9 998.1 12.3 SW 16.2 SSW 0.0 3.9
16:35 3.4 86.7 998.1 11.8 SW 16.2 WSW 0.0 2.1
16:40 3.3 87.2 998.1 15.0 SW 18.7 SW 0.0 0.7
16:45 3.3 88.0 998.1 14.4 SW 17.3 SSW 0.0 0.3
16:50 3.2 88.3 998.2 13.5 SW 18.7 SSW 0.0 0.1
16:55 3.3 88.0 998.3 13.2 SW 16.2 SW 0.0 0.1
17:00 3.2 88.3 998.3 13.4 SW 17.0 SW 0.0 0.1
17:05 3.4 87.2 998.3 16.1 SW 19.8 SW 0.0 0.1
17:10 3.4 86.8 998.3 14.9 SW 19.1 SW 0.0 0.1
17:15 3.2 88.1 998.3 13.3 SW 17.3 SW 0.0 0.1
17:20 3.2 87.9 998.4 14.0 SW 17.3 SW 0.0 0.1
17:25 3.2 87.1 998.6 10.9 SW 14.1 SW 0.0 0.1
17:30 3.2 86.3 998.6 12.8 SW 17.3 SW 0.0 0.1
17:35 3.3 85.7 998.6 15.6 SW 20.5 WSW 0.0 0.1
17:40 3.3 85.7 998.6 17.4 SW 24.7 WSW 0.0 0.1
17:45 3.3 85.7 998.6 15.7 SW 20.8 SW 0.0 0.1
17:50 3.3 85.3 998.6 16.1 WSW 22.6 SW 0.0 0.1
17:55 3.5 84.7 998.7 14.5 WSW 21.2 WSW 0.0 0.1
18:00 3.4 85.2 998.8 10.9 WSW 16.6 WSW 0.0 0.1
18:05 3.3 86.0 998.8 12.7 WSW 21.2 WSW 0.0 0.1
18:10 3.2 86.8 998.8 14.9 SW 20.8 SW 0.0 0.1
18:15 3.1 87.8 998.8 17.3 SW 23.7 SW 0.0 0.1
18:20 3.1 88.1 998.9 18.2 SW 23.0 SSW 0.0 0.1
18:25 2.9 89.0 999.0 15.3 SW 20.5 SW 0.0 0.1
18:30 2.6 90.2 999.1 11.8 SW 17.3 SW 0.0 0.1
18:35 2.6 90.6 999.2 11.7 SW 15.9 SW 0.0 0.1
18:40 2.6 90.7 999.2 12.3 SSW 15.5 SW 0.0 0.1
18:45 2.7 90.6 999.1 12.7 SSW 17.0 SSW 0.0 0.1
18:50 2.7 90.5 999.2 12.9 SSW 17.3 SW 0.0 0.1
18:55 2.6 90.6 999.2 14.4 SSW 18.7 SSW 0.0 0.1
19:00 2.7 90.7 999.2 14.1 SW 19.4 SSW 0.0 0.1
19:05 2.7 90.7 999.2 12.1 SW 14.5 SSW 0.0 0.1
19:10 2.5 91.2 999.2 11.5 SW 15.2 SW 0.0 0.1
19:15 2.2 92.7 999.3 10.3 SW 12.4 SW 0.0 0.1
19:20 2.1 93.6 999.2 11.2 SW 14.1 SW 0.0 0.1
19:25 2.1 93.7 999.2 12.0 SW 15.2 SSW 0.0 0.1
19:30 2.3 93.2 999.2 11.6 SW 14.5 SSW 0.0 0.1
19:35 2.2 93.3 999.3 9.2 SW 12.4 SW 0.0 0.1
19:40 2.2 93.2 999.5 9.5 WSW 12.0 SW 0.0 0.1
19:45 2.3 92.6 999.5 10.9 SW 15.2 SW 0.0 0.1
19:50 2.3 92.2 999.5 11.9 SW 14.8 SW 0.0 0.1
19:55 2.2 92.7 999.5 11.7 SW 14.8 SSW 0.0 0.1
20:00 2.2 92.8 999.4 13.7 SW 18.4 SW 0.0 0.1
20:05 2.1 92.7 999.5 13.7 WSW 16.6 WSW 0.0 0.1
20:10 2.1 93.0 999.5 11.9 WSW 15.5 WSW 0.0 0.1
20:15 2.1 92.5 999.7 11.5 WSW 15.9 WSW 0.0 0.1
20:20 2.1 92.3 999.8 14.1 WSW 18.0 SW 0.0 0.1
20:25 2.1 92.5 999.7 13.5 WSW 16.2 WSW 0.0 0.1
20:30 1.9 93.2 999.7 13.1 WSW 16.2 WSW 0.0 0.1
20:35 1.9 92.8 999.7 13.6 WSW 19.4 WSW 0.0 0.1
20:40 2.0 91.7 999.7 16.0 WSW 21.5 WSW 0.0 0.1
20:45 1.9 92.0 999.7 14.3 WSW 19.8 WSW 0.0 0.1
20:50 1.8 92.4 999.7 13.7 WSW 18.4 WSW 0.0 0.1
20:55 1.8 92.8 999.8 12.8 WSW 17.7 WSW 0.0 0.1
21:00 1.8 92.8 999.9 12.7 WSW 17.7 WSW 0.0 0.1
21:05 1.7 91.8 1000.0 10.5 WSW 14.1 WSW 0.0 0.1
21:10 1.7 90.5 1000.0 10.8 WSW 14.8 W 0.0 0.1
21:15 1.7 89.4 1000.0 10.0 WSW 14.8 W 0.0 0.1
21:20 1.6 89.3 999.9 11.4 WSW 17.0 W 0.0 0.1
21:25 1.7 89.8 999.9 11.3 WSW 16.6 WSW 0.0 0.1
Màxima 6.9 99.9 1000.9 36.5 SW 49.4 SW 0.0 465.3
Mínima -0.6 72.3 995.9
Total 0.0